Time;durP1;ratioP1;P1;durP2;ratioP2;P2;SDS_P1;SDS_P2;PMS_P1;PMS_P2;Temp;Humidity;BMP_temperature;BMP_pressure;BME280_temperature;BME280_humidity;BME280_pressure;Samples;Min_cycle;Max_cycle;Signal;HPM_P1;HPM_P2
2022/01/05 00:02:05;;;;;;;12.38;2.55;;;2.10;99.90;;;;;;4975847;28;20115;-73
2022/01/05 00:04:31;;;;;;;19.02;2.28;;;2.10;99.90;;;;;;4979951;28;20516;-73
2022/01/05 00:06:57;;;;;;;13.23;2.20;;;2.10;99.90;;;;;;4976832;28;20070;-73
2022/01/05 00:09:23;;;;;;;9.00;1.92;;;2.10;99.90;;;;;;4978442;28;20762;-73
2022/01/05 00:11:48;;;;;;;13.38;2.42;;;2.10;99.90;;;;;;4976906;28;20046;-73
2022/01/05 00:14:14;;;;;;;13.13;2.63;;;2.20;99.90;;;;;;4978485;28;20044;-73
2022/01/05 00:16:40;;;;;;;10.60;2.45;;;2.20;99.90;;;;;;5000443;28;20038;-73
2022/01/05 00:19:06;;;;;;;13.55;2.63;;;2.20;99.90;;;;;;4978322;28;20045;-73
2022/01/05 00:21:32;;;;;;;14.55;2.50;;;2.30;99.90;;;;;;4982525;28;20042;-73
2022/01/05 00:23:57;;;;;;;11.68;2.40;;;2.40;99.90;;;;;;4980354;28;20043;-73
2022/01/05 00:26:25;;;;;;;11.73;2.15;;;2.40;99.90;;;;;;4982064;28;20053;-73
2022/01/05 00:28:50;;;;;;;13.23;1.73;;;2.50;99.90;;;;;;4979656;28;20544;-73
2022/01/05 00:31:16;;;;;;;5.80;1.40;;;2.60;99.90;;;;;;4976822;28;20134;-73
2022/01/05 00:33:42;;;;;;;8.82;1.77;;;2.60;99.90;;;;;;4977737;28;20121;-73
2022/01/05 00:36:08;;;;;;;9.38;1.85;;;2.60;99.90;;;;;;4982399;28;20117;-73
2022/01/05 00:38:34;;;;;;;11.38;2.58;;;2.60;99.90;;;;;;4978814;28;20046;-73
2022/01/05 00:41:00;;;;;;;8.77;1.95;;;2.60;99.90;;;;;;4981359;28;20042;-73
2022/01/05 00:43:27;;;;;;;11.18;2.20;;;2.60;99.90;;;;;;4987015;28;20069;-72
2022/01/05 00:45:52;;;;;;;9.55;3.08;;;2.60;99.90;;;;;;4965746;28;20054;-73
2022/01/05 00:48:18;;;;;;;11.15;2.22;;;2.60;99.90;;;;;;4979428;28;20039;-73
2022/01/05 00:50:43;;;;;;;11.50;2.05;;;2.60;99.90;;;;;;4985138;28;20038;-73
2022/01/05 00:53:09;;;;;;;9.27;2.30;;;2.60;99.90;;;;;;4982703;28;20053;-72
2022/01/05 00:55:35;;;;;;;9.73;1.73;;;2.60;99.90;;;;;;4981436;28;20053;-73
2022/01/05 00:58:00;;;;;;;8.75;1.70;;;2.60;99.90;;;;;;4984875;28;20114;-73
2022/01/05 01:00:26;;;;;;;10.55;1.73;;;2.60;99.90;;;;;;5003954;28;20045;-73
2022/01/05 01:02:52;;;;;;;12.63;1.60;;;2.50;99.90;;;;;;4983337;28;20054;-72
2022/01/05 01:05:18;;;;;;;10.15;1.70;;;2.50;99.90;;;;;;4982345;28;20043;-73
2022/01/05 01:07:44;;;;;;;11.23;1.85;;;2.50;99.90;;;;;;4985140;28;20118;-72
2022/01/05 01:10:10;;;;;;;13.05;2.28;;;2.50;99.90;;;;;;4987350;28;20042;-73
2022/01/05 01:12:36;;;;;;;11.05;2.17;;;2.40;99.90;;;;;;4982831;28;20465;-73
2022/01/05 01:15:07;;;;;;;10.70;1.77;;;2.50;99.90;;;;;;4984155;28;20050;-72
2022/01/05 01:17:33;;;;;;;9.40;1.98;;;2.50;99.90;;;;;;4985971;28;20034;-72
2022/01/05 01:19:58;;;;;;;10.07;1.70;;;2.50;99.90;;;;;;4987289;28;20038;-73
2022/01/05 01:22:27;;;;;;;7.45;1.48;;;2.50;99.90;;;;;;4985093;28;20046;-73
2022/01/05 01:24:53;;;;;;;8.25;1.90;;;2.50;99.90;;;;;;4987346;28;20057;-72
2022/01/05 01:27:18;;;;;;;14.30;2.10;;;2.50;99.90;;;;;;4986221;28;20050;-73
2022/01/05 01:29:44;;;;;;;14.18;2.08;;;2.50;99.90;;;;;;4982014;28;20040;-72
2022/01/05 01:32:09;;;;;;;10.60;2.10;;;2.50;99.90;;;;;;4987379;28;20070;-73
2022/01/05 01:34:35;;;;;;;14.50;2.05;;;2.60;99.90;;;;;;4967368;28;20038;-73
2022/01/05 01:37:01;;;;;;;13.13;2.30;;;2.60;99.90;;;;;;4986691;28;20042;-73
2022/01/05 01:39:26;;;;;;;7.00;2.05;;;2.60;99.90;;;;;;4985325;28;20038;-73
2022/01/05 01:41:52;;;;;;;10.73;1.92;;;2.60;99.90;;;;;;4984004;28;20057;-73
2022/01/05 01:44:18;;;;;;;11.55;2.20;;;2.60;99.90;;;;;;4987081;28;20035;-73
2022/01/05 01:46:43;;;;;;;13.07;1.60;;;2.60;99.90;;;;;;4986273;28;20039;-73
2022/01/05 01:49:09;;;;;;;9.63;1.90;;;2.60;99.90;;;;;;4988096;28;20042;-73
2022/01/05 01:51:35;;;;;;;10.77;2.30;;;2.60;99.90;;;;;;4981725;28;20046;-73
2022/01/05 01:54:02;;;;;;;12.93;1.98;;;2.50;99.90;;;;;;4987790;28;20085;-72
2022/01/05 01:56:33;;;;;;;11.20;1.80;;;2.50;99.90;;;;;;4989135;28;20101;-72
2022/01/05 01:58:59;;;;;;;13.30;1.92;;;2.40;99.90;;;;;;4977820;28;20062;-72
2022/01/05 02:01:25;;;;;;;10.43;1.85;;;2.30;99.90;;;;;;4980224;28;20062;-73
2022/01/05 02:03:52;;;;;;;14.38;1.95;;;2.30;99.90;;;;;;4979355;28;20039;-73
2022/01/05 02:06:19;;;;;;;9.93;1.88;;;2.20;99.90;;;;;;4983363;28;21771;-73
2022/01/05 02:08:45;;;;;;;14.63;2.28;;;2.20;99.90;;;;;;4980872;28;20050;-73
2022/01/05 02:11:13;;;;;;;12.80;2.20;;;2.30;99.90;;;;;;4981419;28;20045;-73
2022/01/05 02:13:39;;;;;;;13.02;3.67;;;2.30;99.90;;;;;;4980375;28;20046;-73
2022/01/05 02:16:06;;;;;;;11.48;2.10;;;2.40;99.90;;;;;;4979849;28;20042;-73
2022/01/05 02:21:01;;;;;;;10.05;1.90;;;2.50;99.90;;;;;;4980565;28;20085;-73
2022/01/05 02:23:27;;;;;;;12.32;2.05;;;2.50;99.90;;;;;;4990540;28;20034;-73
2022/01/05 02:25:53;;;;;;;9.88;2.05;;;2.50;99.90;;;;;;4982245;28;20489;-73
2022/01/05 02:28:19;;;;;;;12.07;2.30;;;2.40;99.90;;;;;;4981056;28;20041;-73
2022/01/05 02:30:45;;;;;;;15.05;1.98;;;2.50;99.90;;;;;;4983791;28;20054;-73
2022/01/05 02:33:10;;;;;;;18.48;2.55;;;2.50;99.90;;;;;;4970239;28;20044;-73
2022/01/05 02:35:36;;;;;;;9.20;2.15;;;2.50;99.90;;;;;;4982511;28;20070;-73
2022/01/05 02:38:04;;;;;;;16.00;3.15;;;2.60;99.90;;;;;;4985968;28;20062;-73
2022/01/05 02:40:30;;;;;;;13.55;2.42;;;2.60;99.90;;;;;;5003340;28;20499;-73
2022/01/05 02:42:57;;;;;;;12.10;2.70;;;2.60;99.90;;;;;;4985003;28;20069;-73
2022/01/05 02:45:22;;;;;;;12.10;2.25;;;2.70;99.90;;;;;;4982402;28;20156;-73
2022/01/05 02:47:48;;;;;;;10.98;2.22;;;2.80;99.90;;;;;;4981829;28;20546;-73
2022/01/05 02:50:15;;;;;;;11.00;2.22;;;2.80;99.90;;;;;;4976203;28;20080;-73
2022/01/05 02:52:41;;;;;;;12.48;2.67;;;2.90;99.90;;;;;;4981045;28;20047;-73
2022/01/05 02:55:08;;;;;;;13.15;2.40;;;2.90;99.90;;;;;;4975391;28;20039;-73
2022/01/05 02:57:35;;;;;;;18.63;2.65;;;2.90;99.90;;;;;;4980382;28;20039;-73
2022/01/05 03:00:01;;;;;;;16.58;3.33;;;3.00;99.90;;;;;;4983678;28;20049;-73
2022/01/05 03:02:26;;;;;;;19.65;2.88;;;3.10;99.90;;;;;;4983306;28;20121;-73
2022/01/05 03:04:52;;;;;;;12.25;2.75;;;3.10;99.90;;;;;;4985428;28;20053;-73
2022/01/05 03:07:18;;;;;;;17.80;3.05;;;3.20;99.90;;;;;;4984866;28;20089;-72
2022/01/05 03:09:44;;;;;;;21.65;2.90;;;3.20;99.90;;;;;;4984712;28;20061;-72
2022/01/05 03:12:11;;;;;;;20.02;3.50;;;3.20;99.90;;;;;;4991512;28;20041;-73
2022/01/05 03:14:37;;;;;;;18.08;3.70;;;3.30;99.90;;;;;;5004161;28;20038;-73
2022/01/05 03:17:03;;;;;;;16.98;2.90;;;3.30;99.90;;;;;;4979098;28;20042;-73
2022/01/05 03:19:29;;;;;;;18.88;2.90;;;3.30;99.90;;;;;;4983413;28;20034;-73
2022/01/05 03:21:54;;;;;;;19.08;3.10;;;3.40;99.90;;;;;;4981095;28;20069;-73
2022/01/05 03:24:20;;;;;;;12.75;3.00;;;3.40;99.90;;;;;;4977000;28;20048;-73
2022/01/05 03:26:46;;;;;;;20.75;3.38;;;3.40;99.90;;;;;;4978007;28;20054;-73
2022/01/05 03:29:11;;;;;;;19.02;3.20;;;3.40;99.90;;;;;;4977709;28;20045;-73
2022/01/05 03:31:37;;;;;;;19.65;3.45;;;3.40;99.90;;;;;;4972812;28;20058;-73
2022/01/05 03:34:04;;;;;;;17.50;3.47;;;3.40;99.90;;;;;;4981316;28;20035;-73
2022/01/05 03:36:30;;;;;;;17.02;3.42;;;3.40;99.90;;;;;;4976265;28;20046;-73
2022/01/05 03:38:56;;;;;;;20.05;3.28;;;3.50;99.90;;;;;;4961453;28;20031;-73
2022/01/05 03:41:21;;;;;;;17.05;2.97;;;3.60;99.90;;;;;;4980656;28;20073;-73
2022/01/05 03:43:47;;;;;;;18.58;3.47;;;3.60;99.90;;;;;;4981195;28;20092;-73
2022/01/05 03:46:14;;;;;;;18.45;3.90;;;3.60;99.90;;;;;;4980916;28;20046;-73
2022/01/05 03:48:40;;;;;;;15.90;2.88;;;3.70;99.90;;;;;;4996395;28;20046;-73
2022/01/05 03:51:05;;;;;;;19.52;3.25;;;3.60;99.90;;;;;;4962186;28;20504;-73
2022/01/05 03:53:31;;;;;;;19.95;3.63;;;3.60;99.90;;;;;;4998089;28;20173;-73
2022/01/05 03:55:57;;;;;;;14.07;3.08;;;3.70;99.90;;;;;;4981897;28;20038;-73
2022/01/05 03:58:23;;;;;;;23.40;4.10;;;3.70;99.90;;;;;;4987485;28;20038;-73
2022/01/05 04:00:51;;;;;;;16.67;2.72;;;3.80;99.90;;;;;;4983595;28;20042;-73
2022/01/05 04:03:17;;;;;;;14.95;3.13;;;3.80;99.90;;;;;;4985973;28;20030;-72
2022/01/05 04:05:43;;;;;;;14.65;3.38;;;3.80;99.90;;;;;;4983739;28;20034;-72
2022/01/05 04:08:08;;;;;;;17.75;3.22;;;3.90;99.90;;;;;;5001096;28;20093;-72
2022/01/05 04:10:34;;;;;;;11.45;2.47;;;3.90;99.90;;;;;;4998718;28;20194;-72
2022/01/05 04:13:01;;;;;;;18.98;3.00;;;3.90;99.90;;;;;;4985611;28;20038;-72
2022/01/05 04:15:27;;;;;;;17.38;3.22;;;3.90;99.90;;;;;;4982763;28;20118;-73
2022/01/05 04:17:53;;;;;;;16.83;4.40;;;3.90;99.90;;;;;;4982036;28;20164;-73
2022/01/05 04:20:19;;;;;;;11.32;2.83;;;4.00;99.90;;;;;;4980494;28;20051;-73
2022/01/05 04:22:45;;;;;;;15.15;3.65;;;4.00;99.90;;;;;;4980446;28;20046;-73
2022/01/05 04:25:11;;;;;;;18.17;3.10;;;4.00;99.90;;;;;;4984149;28;20075;-73
2022/01/05 04:27:37;;;;;;;20.05;3.10;;;3.90;99.90;;;;;;4985141;28;20129;-73
2022/01/05 04:30:05;;;;;;;14.70;2.55;;;3.90;99.90;;;;;;4984359;28;20149;-73
2022/01/05 04:32:31;;;;;;;19.33;2.80;;;4.00;99.90;;;;;;5000122;28;20076;-73
2022/01/05 04:34:57;;;;;;;15.52;3.00;;;3.90;99.90;;;;;;4969645;28;20058;-73
2022/01/05 04:37:23;;;;;;;19.08;3.30;;;4.00;99.90;;;;;;4980699;28;20039;-73
2022/01/05 04:39:49;;;;;;;16.42;2.88;;;4.00;99.90;;;;;;4995474;28;20146;-73
2022/01/05 04:42:15;;;;;;;12.38;2.30;;;4.00;99.90;;;;;;4983136;28;20045;-72
2022/01/05 04:44:40;;;;;;;15.95;3.38;;;4.00;99.90;;;;;;5002170;28;20038;-72
2022/01/05 04:47:07;;;;;;;13.50;2.30;;;4.10;99.90;;;;;;4981465;28;20536;-72
2022/01/05 04:49:33;;;;;;;15.23;2.90;;;4.10;99.90;;;;;;4982556;28;20042;-72
2022/01/05 04:51:59;;;;;;;14.65;2.40;;;4.20;99.90;;;;;;4982921;28;20041;-72
2022/01/05 04:54:24;;;;;;;18.35;3.28;;;4.10;99.90;;;;;;4966142;28;20053;-73
2022/01/05 04:56:50;;;;;;;13.25;2.70;;;4.20;99.90;;;;;;4983140;28;20039;-73
2022/01/05 04:59:16;;;;;;;17.77;2.60;;;4.10;99.90;;;;;;4980433;28;20039;-73
2022/01/05 05:01:41;;;;;;;13.68;2.95;;;4.10;99.90;;;;;;4978451;28;20394;-72
2022/01/05 05:04:07;;;;;;;12.30;2.90;;;4.20;99.90;;;;;;4977993;28;20058;-72
2022/01/05 05:06:33;;;;;;;15.68;2.88;;;4.20;99.90;;;;;;4962725;28;20057;-73
2022/01/05 05:08:58;;;;;;;15.73;2.83;;;4.30;99.90;;;;;;4977863;28;20050;-73
2022/01/05 05:11:24;;;;;;;15.40;3.38;;;4.20;99.90;;;;;;4980806;28;20082;-73
2022/01/05 05:13:50;;;;;;;15.23;2.78;;;4.30;99.90;;;;;;4981013;28;20154;-73
2022/01/05 05:16:16;;;;;;;13.95;2.83;;;4.20;99.90;;;;;;4980489;28;20038;-73
2022/01/05 05:18:41;;;;;;;20.02;3.38;;;4.30;99.90;;;;;;4984176;28;20039;-73
2022/01/05 05:21:07;;;;;;;14.65;2.80;;;4.30;99.90;;;;;;4974071;28;20043;-73
2022/01/05 05:23:33;;;;;;;21.95;3.88;;;4.40;99.90;;;;;;4976018;28;21706;-73
2022/01/05 05:25:58;;;;;;;15.90;3.17;;;4.40;99.90;;;;;;4982683;28;20141;-73
2022/01/05 05:28:24;;;;;;;12.02;2.35;;;4.40;99.90;;;;;;4978406;28;20054;-73
2022/01/05 05:30:50;;;;;;;19.80;2.70;;;4.50;99.90;;;;;;4978613;28;20046;-73
2022/01/05 05:33:16;;;;;;;15.80;3.03;;;4.60;99.90;;;;;;4977034;28;20046;-72
2022/01/05 05:35:42;;;;;;;14.73;2.58;;;4.60;99.90;;;;;;4979698;28;20042;-72
2022/01/05 05:38:08;;;;;;;16.05;3.00;;;4.60;99.90;;;;;;4961315;28;20031;-72
2022/01/05 05:40:34;;;;;;;15.85;3.50;;;4.60;99.90;;;;;;4989845;28;20072;-72
2022/01/05 05:43:00;;;;;;;12.95;2.28;;;4.60;99.90;;;;;;4968195;28;20043;-72
2022/01/05 05:45:26;;;;;;;13.77;2.88;;;4.60;99.90;;;;;;4971665;28;20046;-72
2022/01/05 05:47:52;;;;;;;16.48;2.80;;;4.60;99.90;;;;;;4982853;28;20113;-72
2022/01/05 05:50:19;;;;;;;20.83;3.47;;;4.70;99.90;;;;;;4977993;28;20066;-72
2022/01/05 05:52:44;;;;;;;18.67;3.42;;;4.70;99.90;;;;;;4981547;28;20507;-72
2022/01/05 05:55:10;;;;;;;16.58;2.95;;;4.70;99.90;;;;;;4999947;28;20042;-73
2022/01/05 05:57:36;;;;;;;10.73;2.58;;;4.80;99.90;;;;;;4981821;28;20043;-73
2022/01/05 06:00:03;;;;;;;16.70;2.47;;;4.80;99.90;;;;;;4975060;28;20030;-73
2022/01/05 06:02:29;;;;;;;13.38;2.95;;;4.90;99.90;;;;;;4977875;28;20039;-73
2022/01/05 06:04:55;;;;;;;17.65;3.45;;;4.90;99.90;;;;;;4977962;28;20051;-72
2022/01/05 06:07:20;;;;;;;15.43;3.30;;;5.00;99.90;;;;;;4977568;28;20566;-72
2022/01/05 06:09:46;;;;;;;16.15;2.70;;;5.00;99.90;;;;;;4979816;28;20158;-72
2022/01/05 06:12:11;;;;;;;19.73;3.38;;;5.00;99.90;;;;;;4980503;28;20095;-72
2022/01/05 06:14:37;;;;;;;8.52;2.33;;;5.00;99.90;;;;;;4979510;28;20125;-72
2022/01/05 06:17:03;;;;;;;15.57;2.72;;;5.00;99.90;;;;;;4980335;28;20163;-72
2022/01/05 06:19:28;;;;;;;16.27;3.85;;;5.00;99.90;;;;;;4985141;28;20042;-72
2022/01/05 06:21:54;;;;;;;12.77;2.78;;;4.90;99.90;;;;;;5044161;22;20450;-75
2022/01/05 06:24:20;;;;;;;15.30;2.55;;;4.90;99.90;;;;;;5003180;28;20115;-75
2022/01/05 06:26:45;;;;;;;14.40;2.67;;;4.80;99.90;;;;;;4989131;28;20476;-75
2022/01/05 06:29:13;;;;;;;15.20;3.10;;;4.80;99.90;;;;;;4987265;28;20065;-76
2022/01/05 06:31:40;;;;;;;13.57;2.63;;;4.70;99.90;;;;;;4980429;28;20072;-76
2022/01/05 06:34:06;;;;;;;15.88;2.92;;;4.70;99.90;;;;;;4968845;28;20045;-75
2022/01/05 06:36:32;;;;;;;17.95;3.35;;;4.60;99.90;;;;;;4983850;28;20432;-76
2022/01/05 06:38:57;;;;;;;12.07;2.38;;;4.60;99.90;;;;;;4968888;28;20042;-76
2022/01/05 06:41:23;;;;;;;17.17;2.40;;;4.60;99.90;;;;;;4952447;28;20093;-76
2022/01/05 06:43:48;;;;;;;13.90;2.50;;;4.60;99.90;;;;;;4969103;28;20400;-76
2022/01/05 06:46:14;;;;;;;20.92;2.88;;;4.60;99.90;;;;;;4950636;28;20038;-76
2022/01/05 06:48:40;;;;;;;14.95;3.28;;;4.60;99.90;;;;;;4968788;28;20038;-76
2022/01/05 06:51:05;;;;;;;19.58;3.05;;;4.60;99.90;;;;;;4984946;28;20519;-76
2022/01/05 06:53:31;;;;;;;21.58;3.75;;;4.60;99.90;;;;;;4969774;28;20129;-76
2022/01/05 06:55:57;;;;;;;16.73;2.65;;;4.60;99.90;;;;;;4969787;28;20042;-76
2022/01/05 06:58:22;;;;;;;14.23;2.50;;;4.60;99.90;;;;;;4966431;28;20065;-76
2022/01/05 07:00:48;;;;;;;16.88;2.75;;;4.50;99.90;;;;;;4952187;28;20030;-76
2022/01/05 07:03:14;;;;;;;13.55;2.20;;;4.50;99.90;;;;;;4949668;28;20061;-76
2022/01/05 07:05:40;;;;;;;15.70;3.05;;;4.50;99.90;;;;;;4984816;28;20745;-77
2022/01/05 07:08:06;;;;;;;14.07;2.55;;;4.50;99.90;;;;;;4952139;28;20050;-76
2022/01/05 07:10:32;;;;;;;12.52;2.65;;;4.60;99.90;;;;;;4965746;28;20039;-76
2022/01/05 07:12:58;;;;;;;11.43;2.28;;;4.50;99.90;;;;;;4969096;28;20038;-76
2022/01/05 07:15:25;;;;;;;14.40;2.53;;;4.40;99.90;;;;;;4981891;28;20116;-76
2022/01/05 07:17:51;;;;;;;13.50;2.10;;;4.40;99.90;;;;;;4968904;28;20103;-76
2022/01/05 07:20:17;;;;;;;9.57;1.80;;;4.20;99.90;;;;;;4967442;28;20030;-76
2022/01/05 07:22:43;;;;;;;12.00;2.75;;;4.20;99.90;;;;;;4967077;28;20123;-77
2022/01/05 07:25:09;;;;;;;9.75;2.22;;;4.20;99.90;;;;;;4967842;28;20042;-77
2022/01/05 07:27:36;;;;;;;12.48;2.75;;;4.20;99.90;;;;;;4966585;28;20085;-76
2022/01/05 07:30:04;;;;;;;13.02;2.30;;;4.10;99.90;;;;;;4966734;28;20043;-76
2022/01/05 07:32:30;;;;;;;10.70;1.70;;;4.10;99.90;;;;;;4966095;28;20046;-76
2022/01/05 07:34:56;;;;;;;10.15;2.40;;;4.00;99.90;;;;;;4966435;28;20484;-76
2022/01/05 07:37:22;;;;;;;9.95;2.50;;;4.00;99.90;;;;;;4982595;28;20084;-77
2022/01/05 07:39:48;;;;;;;15.55;2.40;;;3.90;99.90;;;;;;4958563;28;20038;-76
2022/01/05 07:42:14;;;;;;;13.27;2.88;;;3.90;99.90;;;;;;4966039;28;20073;-76
2022/01/05 07:44:39;;;;;;;16.88;3.05;;;4.00;99.90;;;;;;4965881;28;20049;-76
2022/01/05 07:47:07;;;;;;;10.70;2.90;;;4.00;99.90;;;;;;4968039;28;20038;-76
2022/01/05 07:49:33;;;;;;;10.68;2.60;;;4.00;99.90;;;;;;4967465;28;20042;-76
2022/01/05 07:51:58;;;;;;;17.95;2.75;;;4.00;99.90;;;;;;4958080;28;20039;-75
2022/01/05 07:54:24;;;;;;;15.20;3.08;;;4.10;99.90;;;;;;4963386;28;20038;-75
2022/01/05 07:56:49;;;;;;;13.65;2.22;;;4.30;99.90;;;;;;4967232;28;20038;-74
2022/01/05 07:59:15;;;;;;;14.25;2.25;;;4.30;99.90;;;;;;4964277;28;20509;-74
2022/01/05 08:01:41;;;;;;;14.73;2.70;;;4.40;99.90;;;;;;4986873;28;20080;-74
2022/01/05 08:04:06;;;;;;;16.10;2.85;;;4.50;99.90;;;;;;4971157;28;20505;-74
2022/01/05 08:06:32;;;;;;;20.95;3.05;;;4.60;99.90;;;;;;4972290;28;20049;-74
2022/01/05 08:09:00;;;;;;;17.50;3.15;;;4.70;99.90;;;;;;4970664;28;20038;-74
2022/01/05 08:11:26;;;;;;;16.67;3.15;;;4.80;99.90;;;;;;4966480;28;20065;-74
2022/01/05 08:13:52;;;;;;;20.70;3.85;;;4.80;99.90;;;;;;4971676;28;20058;-74
2022/01/05 08:16:18;;;;;;;16.15;2.70;;;4.90;99.90;;;;;;4966182;28;20088;-74
2022/01/05 08:18:45;;;;;;;18.85;2.83;;;5.00;99.90;;;;;;4974727;28;20045;-75
2022/01/05 08:21:11;;;;;;;20.55;2.88;;;5.00;99.90;;;;;;4972001;28;20042;-75
2022/01/05 08:23:36;;;;;;;22.38;3.38;;;5.00;99.90;;;;;;4973021;28;20038;-75
2022/01/05 08:26:04;;;;;;;19.45;3.28;;;5.10;99.90;;;;;;4970347;28;20100;-75
2022/01/05 08:28:30;;;;;;;20.55;2.20;;;5.20;99.90;;;;;;4968359;28;20049;-75
2022/01/05 08:30:55;;;;;;;13.73;1.90;;;5.20;99.90;;;;;;4973329;28;20069;-75
2022/01/05 08:33:21;;;;;;;11.10;2.08;;;5.10;99.90;;;;;;4971243;28;20070;-75
2022/01/05 08:35:48;;;;;;;13.75;2.63;;;5.10;99.90;;;;;;4971634;28;20053;-76
2022/01/05 08:38:15;;;;;;;15.82;2.63;;;5.10;99.90;;;;;;4985239;28;20035;-76
2022/01/05 08:40:41;;;;;;;15.60;2.42;;;5.00;99.90;;;;;;4973035;28;20046;-76
2022/01/05 08:43:09;;;;;;;14.85;2.03;;;5.00;99.90;;;;;;4974752;28;20045;-76
2022/01/05 08:45:35;;;;;;;15.88;2.30;;;5.00;99.90;;;;;;4974645;28;20050;-76
2022/01/05 08:48:01;;;;;;;14.05;2.30;;;5.00;99.90;;;;;;4969596;28;20054;-76
2022/01/05 08:50:30;;;;;;;18.20;2.65;;;5.00;99.90;;;;;;4973822;28;20100;-76
2022/01/05 08:52:57;;;;;;;16.52;3.33;;;5.10;99.90;;;;;;4969859;28;20045;-76
2022/01/05 08:55:27;;;;;;;16.85;2.72;;;5.10;99.90;;;;;;4971224;28;20035;-75
2022/01/05 08:57:54;;;;;;;20.92;2.72;;;5.20;99.90;;;;;;4974450;28;20054;-75
2022/01/05 09:00:20;;;;;;;19.13;2.70;;;5.20;99.90;;;;;;4975992;28;20112;-75
2022/01/05 09:02:46;;;;;;;17.67;2.30;;;5.20;99.90;;;;;;4974952;28;20074;-75
2022/01/05 09:05:12;;;;;;;22.38;3.03;;;5.30;99.90;;;;;;4972857;28;20046;-75
2022/01/05 09:07:37;;;;;;;13.20;2.30;;;5.40;99.90;;;;;;4954863;28;20046;-75
2022/01/05 09:10:05;;;;;;;13.52;2.35;;;5.50;99.90;;;;;;4975614;28;20042;-75
2022/01/05 09:12:31;;;;;;;12.52;1.90;;;5.50;99.90;;;;;;4974148;28;20053;-75
2022/01/05 09:14:57;;;;;;;13.63;1.73;;;5.50;99.90;;;;;;4974396;28;20116;-75
2022/01/05 09:17:24;;;;;;;10.95;1.73;;;5.60;99.90;;;;;;4975921;28;20070;-75
2022/01/05 09:19:50;;;;;;;11.25;2.03;;;5.60;99.90;;;;;;4951452;28;20551;-75
2022/01/05 09:22:16;;;;;;;11.32;1.75;;;5.70;99.90;;;;;;4960764;28;20031;-75
2022/01/05 09:24:42;;;;;;;12.70;2.17;;;5.70;99.90;;;;;;4972112;28;20094;-75
2022/01/05 09:27:08;;;;;;;12.02;2.00;;;5.70;99.90;;;;;;4975902;28;20377;-75
2022/01/05 09:29:34;;;;;;;18.73;2.40;;;5.80;99.90;;;;;;4975028;28;20039;-75
2022/01/05 09:32:05;;;;;;;16.98;2.35;;;5.70;99.90;;;;;;4971871;28;20046;-74
2022/01/05 09:34:31;;;;;;;16.23;2.35;;;5.70;99.90;;;;;;4945588;28;20046;-75
2022/01/05 09:37:03;;;;;;;19.48;3.08;;;5.70;99.90;;;;;;4967003;28;20030;-75
2022/01/05 09:42:52;;;;;;;18.35;2.53;;;5.80;99.90;;;;;;5024289;22;20526;-75
2022/01/05 09:45:51;;;;;;;18.98;2.60;;;5.90;99.90;;;;;;4984669;28;20520;-75
2022/01/05 09:48:38;;;;;;;15.88;2.63;;;6.00;99.90;;;;;;4980909;28;20081;-75
2022/01/05 09:51:09;;;;;;;20.20;2.95;;;6.10;99.90;;;;;;5001113;28;20038;-75
2022/01/05 09:53:36;;;;;;;17.45;2.75;;;6.10;99.90;;;;;;4999820;28;20062;-76
2022/01/05 09:56:04;;;;;;;17.67;3.42;;;6.10;99.90;;;;;;4996883;28;20403;-75
2022/01/05 09:58:30;;;;;;;25.35;5.13;;;6.10;99.90;;;;;;4995872;28;20035;-76
2022/01/05 10:00:57;;;;;;;24.58;3.40;;;6.10;99.90;;;;;;4996505;28;20049;-76
2022/01/05 10:03:23;;;;;;;24.13;3.60;;;6.10;99.90;;;;;;5018613;28;20400;-76
2022/01/05 10:05:49;;;;;;;25.25;4.30;;;6.10;99.90;;;;;;4998677;28;20037;-76
2022/01/05 10:08:14;;;;;;;26.17;4.68;;;6.10;99.90;;;;;;5000562;28;20038;-75
2022/01/05 10:10:41;;;;;;;25.40;4.43;;;6.20;99.90;;;;;;4996676;28;20038;-76
2022/01/05 10:13:07;;;;;;;23.05;4.25;;;6.30;99.90;;;;;;5020379;23;20479;-75
2022/01/05 10:20:11;;;;;;;22.10;4.00;;;6.30;99.90;;;;;;4823275;29;20056;-75
2022/01/05 10:23:35;;;;;;;24.25;4.90;;;6.30;99.90;;;;;;4761666;29;20135;-75
2022/01/05 10:31:05;;;;;;;;;;;;;;;;;;;;;
2022/01/05 10:38:48;;;;;;;;;;;;;;;;;;;;;
2022/01/05 10:56:31;;;;;;;19.50;3.33;;;6.90;99.90;;;;;;4935327;28;20413;-75
2022/01/05 11:03:39;;;;;;;27.42;5.57;;;7.00;99.90;;;;;;4997883;28;20041;-75
2022/01/05 11:06:16;;;;;;;23.38;5.95;;;7.00;99.90;;;;;;5001874;28;20046;-74
2022/01/05 11:09:21;;;;;;;56.08;22.95;;;7.00;99.90;;;;;;5004247;28;20462;-74
2022/01/05 11:12:29;;;;;;;33.00;6.38;;;7.10;99.90;;;;;;4958525;28;20058;-75
2022/01/05 11:15:23;;;;;;;92.28;39.33;;;7.10;99.90;;;;;;4947717;28;20052;-75
2022/01/05 11:18:18;;;;;;;80.85;38.22;;;7.20;99.90;;;;;;4996468;28;20042;-75
2022/01/05 11:20:49;;;;;;;27.55;4.90;;;7.20;99.90;;;;;;5003685;28;20038;-75
2022/01/05 11:23:16;;;;;;;21.10;8.73;;;7.20;99.90;;;;;;5001296;28;20384;-75
2022/01/05 11:25:44;;;;;;;28.30;10.27;;;7.40;99.90;;;;;;5003434;28;20056;-75
2022/01/05 11:28:11;;;;;;;27.10;8.55;;;7.50;99.90;;;;;;5003408;28;20048;-75
2022/01/05 11:30:38;;;;;;;17.23;3.78;;;7.50;99.90;;;;;;4986519;28;20610;-75
2022/01/05 11:33:05;;;;;;;37.50;19.13;;;7.50;99.90;;;;;;5001747;28;20606;-75
2022/01/05 11:35:32;;;;;;;16.05;3.45;;;7.70;99.90;;;;;;5001980;28;20038;-75
2022/01/05 11:37:58;;;;;;;21.50;5.35;;;7.70;99.90;;;;;;5002327;28;20038;-75
2022/01/05 11:40:24;;;;;;;22.23;3.53;;;7.70;99.90;;;;;;5001341;28;20400;-76
2022/01/05 11:43:01;;;;;;;16.05;2.92;;;7.80;99.90;;;;;;4998137;28;20041;-75
2022/01/05 11:45:34;;;;;;;16.38;3.17;;;7.80;99.90;;;;;;5003510;28;20050;-75
2022/01/05 11:48:28;;;;;;;15.90;2.88;;;7.90;99.90;;;;;;5002866;28;20128;-75
2022/01/05 11:51:00;;;;;;;14.75;3.00;;;7.80;99.90;;;;;;5018887;28;20046;-75
2022/01/05 12:02:03;;;;;;;;;;;;;;;;;;;;;
2022/01/05 12:06:02;;;;;;;;;;;;;;;;;;;;;
2022/01/05 12:09:55;;;;;;;;;;;;;;;;;;;;;
2022/01/05 12:13:42;;;;;;;15.10;2.28;;;7.80;99.90;;;;;;4901324;29;20266;-75
2022/01/05 12:17:29;;;;;;;;;;;;;;;;;;;;;
2022/01/05 12:20:53;;;;;;;9.82;2.05;;;7.90;99.90;;;;;;4893081;29;20431;-76
2022/01/05 12:23:52;;;;;;;10.40;2.03;;;8.00;99.90;;;;;;4970996;28;20053;-76
2022/01/05 12:26:17;;;;;;;8.80;1.92;;;8.10;99.90;;;;;;4968926;28;20069;-76
2022/01/05 12:28:55;;;;;;;14.80;2.63;;;8.20;99.90;;;;;;4969080;28;20510;-76
2022/01/05 12:31:59;;;;;;;14.60;2.65;;;8.20;99.90;;;;;;4966636;28;20058;-76
2022/01/05 12:34:57;;;;;;;16.15;2.60;;;8.30;99.90;;;;;;4966659;28;20034;-76
2022/01/05 12:37:57;;;;;;;14.15;2.38;;;8.40;99.90;;;;;;4962035;28;20043;-76
2022/01/05 12:40:23;;;;;;;24.02;3.67;;;8.30;99.90;;;;;;4970141;28;20034;-75
2022/01/05 12:43:09;;;;;;;16.13;3.03;;;8.10;99.90;;;;;;4967169;28;20034;-71
2022/01/05 12:45:57;;;;;;;20.05;7.50;;;8.10;99.90;;;;;;4967461;28;20046;-75
2022/01/05 12:48:39;;;;;;;14.95;3.15;;;8.30;99.90;;;;;;4966859;28;20562;-75
2022/01/05 12:51:11;;;;;;;20.40;4.38;;;8.20;99.90;;;;;;4982369;28;20053;-75
2022/01/05 12:54:01;;;;;;;16.02;4.45;;;8.20;99.90;;;;;;4968296;28;20042;-74
2022/01/05 12:56:35;;;;;;;17.85;5.30;;;8.20;99.90;;;;;;4967954;28;20037;-75
2022/01/05 12:59:03;;;;;;;19.27;5.15;;;8.20;99.90;;;;;;4996057;28;20153;-75
2022/01/05 13:08:08;;;;;;;12.65;3.47;;;7.90;99.90;;;;;;4945234;28;20054;-75
2022/01/05 13:11:38;;;;;;;14.77;5.47;;;7.70;99.90;;;;;;4929097;28;20147;-75
2022/01/05 13:14:24;;;;;;;10.77;3.13;;;7.50;99.90;;;;;;4928959;29;20043;-75
2022/01/05 13:17:01;;;;;;;14.52;2.63;;;7.40;99.90;;;;;;4930185;29;20050;-75
2022/01/05 13:19:44;;;;;;;12.27;2.58;;;7.30;99.90;;;;;;4927601;29;20183;-75
2022/01/05 13:22:20;;;;;;;;;;;7.20;99.90;;;;;;4929227;29;20134;-75
2022/01/05 13:24:46;;;;;;;13.68;2.80;;;7.30;99.90;;;;;;4927619;29;19925;-75
2022/01/05 13:27:12;;;;;;;13.40;2.72;;;7.20;99.90;;;;;;4928244;29;20055;-75
2022/01/05 13:29:38;;;;;;;23.88;8.18;;;7.30;99.90;;;;;;4928213;28;20660;-75
2022/01/05 13:32:10;;;;;;;18.52;3.17;;;7.50;99.90;;;;;;4947689;28;20040;-75
2022/01/05 13:34:38;;;;;;;19.80;6.38;;;7.50;99.90;;;;;;4928665;29;20566;-75
2022/01/05 13:37:05;;;;;;;21.88;8.25;;;7.50;99.90;;;;;;4945967;28;22028;-75
2022/01/05 13:39:49;;;;;;;14.18;3.03;;;7.50;99.90;;;;;;4929733;29;20039;-75
2022/01/05 13:42:17;;;;;;;15.02;3.70;;;7.40;99.90;;;;;;4912780;28;20433;-75
2022/01/05 13:44:46;;;;;;;26.13;5.85;;;7.50;99.90;;;;;;4926408;29;20079;-75
2022/01/05 13:47:13;;;;;;;18.77;4.30;;;7.50;99.90;;;;;;4912062;29;20627;-75
2022/01/05 13:49:40;;;;;;;18.73;3.10;;;7.80;99.90;;;;;;4930072;28;20043;-75
2022/01/05 13:52:05;;;;;;;22.02;6.72;;;7.90;99.90;;;;;;4945070;28;20045;-75
2022/01/05 13:54:33;;;;;;;37.53;17.20;;;7.80;99.90;;;;;;4914172;28;20043;-75
2022/01/05 13:56:59;;;;;;;22.95;6.43;;;7.70;99.90;;;;;;4928161;29;20050;-76
2022/01/05 13:59:25;;;;;;;20.20;5.95;;;7.80;99.90;;;;;;4926801;29;20023;-75
2022/01/05 14:03:02;;;;;;;25.85;10.30;;;7.90;99.90;;;;;;4950364;23;20051;-76
2022/01/05 14:06:28;;;;;;;;;;;;;;;;;;;;;